createdAt,value
2018-05-14T00:00:27.943Z,16.60
2018-05-14T00:02:28.906Z,16.60
2018-05-14T00:04:30.027Z,16.60
2018-05-14T00:06:30.986Z,16.70
2018-05-14T00:08:32.147Z,16.60
2018-05-14T00:10:33.471Z,16.50
2018-05-14T00:12:34.564Z,16.50
2018-05-14T00:14:35.536Z,16.40
2018-05-14T00:16:36.890Z,16.50
2018-05-14T00:18:38.047Z,16.50
2018-05-14T00:20:39.395Z,16.50
2018-05-14T00:22:40.415Z,16.40
2018-05-14T00:24:41.752Z,16.50
2018-05-14T00:26:43.648Z,16.50
2018-05-14T00:28:45.133Z,16.30
2018-05-14T00:30:47.144Z,16.40
2018-05-14T00:32:48.446Z,16.30
2018-05-14T00:34:50.302Z,16.20
2018-05-14T00:36:51.339Z,16.20
2018-05-14T00:38:52.403Z,16.20
2018-05-14T00:40:54.411Z,16.20
2018-05-14T00:42:56.064Z,16.10
2018-05-14T00:44:57.046Z,16.20
2018-05-14T00:46:58.409Z,16.00
2018-05-14T00:48:59.471Z,16.10
2018-05-14T00:55:16.417Z,15.90
2018-05-14T00:57:17.427Z,16.00
2018-05-14T00:59:18.378Z,16.00
2018-05-14T01:01:19.323Z,15.90
2018-05-14T01:03:20.274Z,15.90
2018-05-14T01:05:21.363Z,15.90
2018-05-14T01:07:22.310Z,15.90
2018-05-14T01:09:23.255Z,15.80
2018-05-14T01:11:24.219Z,15.80
2018-05-14T01:13:25.178Z,15.70
2018-05-14T01:15:26.291Z,15.70
2018-05-14T01:17:27.238Z,15.60
2018-05-14T01:19:28.851Z,15.50
2018-05-14T01:21:29.891Z,15.50
2018-05-14T01:23:30.842Z,15.40
2018-05-14T01:25:31.793Z,15.50
2018-05-14T01:27:33.282Z,15.60
2018-05-14T01:29:34.258Z,15.60
2018-05-14T01:31:35.580Z,15.70
2018-05-14T01:33:36.521Z,15.50
2018-05-14T01:35:37.463Z,15.50
2018-05-14T01:37:38.422Z,15.40
2018-05-14T01:39:39.745Z,15.40
2018-05-14T01:41:40.698Z,15.30
2018-05-14T01:43:42.027Z,15.40
2018-05-14T01:45:43.335Z,15.50
2018-05-14T01:47:44.301Z,15.50
2018-05-14T01:49:45.322Z,15.40
2018-05-14T01:51:46.358Z,15.50
2018-05-14T01:53:47.798Z,15.40
2018-05-14T01:55:48.820Z,15.40
2018-05-14T01:57:49.810Z,15.40
2018-05-14T01:59:50.783Z,15.40
2018-05-14T02:01:51.796Z,15.40
2018-05-14T02:03:52.754Z,15.30
2018-05-14T02:05:53.803Z,15.40
2018-05-14T02:07:54.763Z,15.40
2018-05-14T02:09:55.754Z,15.40
2018-05-14T02:11:56.777Z,15.50
2018-05-14T02:13:57.723Z,15.40
2018-05-14T02:15:58.982Z,15.10
2018-05-14T02:17:59.946Z,15.20
2018-05-14T02:20:01.255Z,15.30
2018-05-14T02:22:02.210Z,15.30
2018-05-14T02:24:03.170Z,15.30
2018-05-14T02:26:04.497Z,15.20
2018-05-14T02:28:05.590Z,15.20
2018-05-14T02:30:06.552Z,15.20
2018-05-14T02:32:07.536Z,15.20
2018-05-14T02:34:08.510Z,15.20
2018-05-14T02:36:09.470Z,15.20
2018-05-14T02:38:10.456Z,15.10
2018-05-14T02:40:11.673Z,15.10
2018-05-14T02:42:12.644Z,15.00
2018-05-14T02:44:13.618Z,15.10
2018-05-14T02:46:14.565Z,15.20
2018-05-14T02:48:15.891Z,15.00
2018-05-14T02:50:16.977Z,15.00
2018-05-14T02:52:17.927Z,15.10
2018-05-14T02:54:18.882Z,15.10
2018-05-14T02:56:19.830Z,15.20
2018-05-14T02:58:20.862Z,15.20
2018-05-14T03:00:21.827Z,15.30
2018-05-14T03:02:22.786Z,15.30
2018-05-14T03:04:23.770Z,15.30
2018-05-14T03:06:24.715Z,15.20
2018-05-14T03:08:26.776Z,15.20
2018-05-14T03:10:28.143Z,15.20
2018-05-14T03:12:29.660Z,15.20
2018-05-14T03:14:31.019Z,15.20
2018-05-14T03:16:32.361Z,15.10
2018-05-14T03:18:33.687Z,15.10
2018-05-14T03:20:35.254Z,15.00
2018-05-14T03:22:36.206Z,15.00
2018-05-14T03:24:37.158Z,14.80
2018-05-14T03:26:38.133Z,14.80
2018-05-14T03:28:39.306Z,14.90
2018-05-14T03:30:40.310Z,15.00
2018-05-14T03:32:41.370Z,15.00
2018-05-14T03:34:42.333Z,15.00
2018-05-14T03:36:43.285Z,15.00
2018-05-14T03:38:44.268Z,15.00
2018-05-14T03:40:45.605Z,14.90
2018-05-14T03:42:46.934Z,14.90
2018-05-14T03:44:47.899Z,14.90
2018-05-14T03:46:48.853Z,14.90
2018-05-14T03:48:49.809Z,14.90
2018-05-14T03:50:50.763Z,14.80
2018-05-14T03:52:51.698Z,14.80
2018-05-14T03:54:52.814Z,14.90
2018-05-14T03:56:53.773Z,15.00
2018-05-14T03:59:07.597Z,14.90
2018-05-14T04:01:15.345Z,15.00
2018-05-14T04:03:28.686Z,14.90
2018-05-14T04:05:42.074Z,14.90
2018-05-14T04:07:43.419Z,15.10
2018-05-14T04:09:45.554Z,14.90
2018-05-14T04:11:47.281Z,14.90
2018-05-14T04:13:48.234Z,14.90
2018-05-14T04:15:49.186Z,14.70
2018-05-14T04:17:50.410Z,14.80
2018-05-14T04:19:51.411Z,14.90
2018-05-14T04:21:52.407Z,15.00
2018-05-14T04:23:53.734Z,14.90
2018-05-14T04:25:54.698Z,14.90
2018-05-14T04:27:55.657Z,14.90
2018-05-14T04:29:56.618Z,14.90
2018-05-14T04:31:57.611Z,14.90
2018-05-14T04:33:58.792Z,15.00
2018-05-14T04:35:59.752Z,15.00
2018-05-14T04:38:00.724Z,15.00
2018-05-14T04:40:01.672Z,15.20
2018-05-14T04:42:02.618Z,15.30
2018-05-14T04:44:03.575Z,15.10
2018-05-14T04:46:04.534Z,15.10
2018-05-14T04:48:05.870Z,15.20
2018-05-14T04:50:07.223Z,15.30
2018-05-14T04:52:08.242Z,15.30
2018-05-14T04:54:09.182Z,15.40
2018-05-14T04:56:10.498Z,15.30
2018-05-14T04:58:11.446Z,15.30
2018-05-14T05:00:12.399Z,15.30
2018-05-14T05:02:13.817Z,15.40
2018-05-14T05:04:14.926Z,15.50
2018-05-14T05:06:15.866Z,15.50
2018-05-14T05:08:16.834Z,15.50
2018-05-14T05:10:17.913Z,15.60
2018-05-14T05:12:18.788Z,15.60
2018-05-14T05:14:20.128Z,15.70
2018-05-14T05:16:21.082Z,15.70
2018-05-14T05:18:22.040Z,15.90
2018-05-14T05:20:23.646Z,15.90
2018-05-14T05:22:24.640Z,15.90
2018-05-14T05:24:25.947Z,16.10
2018-05-14T05:26:27.090Z,16.10
2018-05-14T05:28:28.514Z,16.10
2018-05-14T05:30:30.551Z,16.00
2018-05-14T05:32:32.462Z,16.00
2018-05-14T05:34:34.035Z,16.30
2018-05-14T05:36:35.047Z,16.30
2018-05-14T05:38:36.378Z,16.60
2018-05-14T05:40:37.787Z,16.60
2018-05-14T05:42:38.751Z,16.60
2018-05-14T05:44:39.735Z,16.70
2018-05-14T05:46:40.686Z,16.70
2018-05-14T05:48:41.918Z,16.80
2018-05-14T05:50:43.519Z,16.90
2018-05-14T05:52:44.852Z,17.20
2018-05-14T05:54:46.069Z,17.20
2018-05-14T05:56:47.006Z,17.10
2018-05-14T05:58:47.941Z,17.20
2018-05-14T06:00:48.982Z,17.40
2018-05-14T06:02:49.949Z,17.40
2018-05-14T06:04:51.271Z,17.30
2018-05-14T06:06:52.242Z,17.40
2018-05-14T06:08:53.191Z,17.50
2018-05-14T06:10:54.178Z,17.60
2018-05-14T06:12:55.506Z,17.60
2018-05-14T06:14:56.484Z,17.60
2018-05-14T06:16:57.437Z,17.80
2018-05-14T06:18:58.386Z,17.80
2018-05-14T06:20:59.347Z,17.80
2018-05-14T06:23:00.338Z,17.80
2018-05-14T06:25:01.315Z,17.90
2018-05-14T06:27:02.278Z,18.00
2018-05-14T06:29:03.605Z,18.10
2018-05-14T06:31:04.823Z,18.20
2018-05-14T06:33:05.768Z,18.20
2018-05-14T06:35:06.784Z,18.20
2018-05-14T06:37:08.073Z,18.20
2018-05-14T06:39:09.419Z,18.30
2018-05-14T06:41:10.764Z,18.40
2018-05-14T06:43:12.107Z,18.40
2018-05-14T06:45:13.425Z,18.40
2018-05-14T06:47:14.357Z,18.40
2018-05-14T06:49:15.306Z,18.60
2018-05-14T06:51:16.652Z,18.70
2018-05-14T06:53:17.966Z,18.80
2018-05-14T06:55:18.938Z,18.90
2018-05-14T06:57:20.257Z,19.10
2018-05-14T06:59:21.204Z,19.10
2018-05-14T07:01:22.707Z,19.20
2018-05-14T07:03:23.646Z,19.20
2018-05-14T07:05:24.599Z,19.30
2018-05-14T07:07:25.579Z,19.10
2018-05-14T07:09:26.537Z,19.20
2018-05-14T07:11:28.141Z,19.50
2018-05-14T07:13:29.466Z,19.80
2018-05-14T07:15:30.402Z,19.80
2018-05-14T07:17:31.342Z,19.70
2018-05-14T07:19:32.672Z,19.80
2018-05-14T07:21:34.303Z,19.80
2018-05-14T07:23:35.286Z,19.90
2018-05-14T07:25:36.595Z,19.90
2018-05-14T07:27:37.820Z,19.90
2018-05-14T07:29:39.300Z,20.00
2018-05-14T07:31:40.663Z,20.10
2018-05-14T07:33:41.673Z,20.10
2018-05-14T07:35:42.620Z,20.30
2018-05-14T07:37:44.342Z,20.50
2018-05-14T07:39:45.286Z,20.50
2018-05-14T07:41:46.411Z,20.50
2018-05-14T07:43:47.354Z,20.60
2018-05-14T07:45:48.320Z,20.80
2018-05-14T07:47:49.641Z,20.80
2018-05-14T07:49:50.594Z,20.80
2018-05-14T07:51:52.194Z,21.20
2018-05-14T07:53:53.139Z,21.20
2018-05-14T07:55:54.077Z,21.20
2018-05-14T07:57:55.054Z,21.30
2018-05-14T07:59:56.014Z,21.50
2018-05-14T08:01:56.963Z,21.60
2018-05-14T08:03:57.898Z,21.70
2018-05-14T08:05:58.846Z,21.70
2018-05-14T08:07:59.789Z,21.80
2018-05-14T08:10:00.754Z,21.90
2018-05-14T08:12:02.070Z,22.20
2018-05-14T08:14:03.046Z,22.20
2018-05-14T08:16:04.019Z,22.20
2018-05-14T08:18:04.985Z,22.20
2018-05-14T08:20:06.294Z,22.30
2018-05-14T08:22:07.415Z,22.30
2018-05-14T08:24:08.364Z,22.30
2018-05-14T08:26:09.321Z,22.30
2018-05-14T08:28:10.292Z,22.50
2018-05-14T08:30:11.242Z,22.50
2018-05-14T08:32:12.179Z,22.60
2018-05-14T08:34:13.178Z,22.70
2018-05-14T08:36:14.491Z,22.80
2018-05-14T08:38:15.427Z,22.90
2018-05-14T08:40:16.371Z,22.90
2018-05-14T08:42:17.360Z,23.00
2018-05-14T08:44:18.281Z,23.10
2018-05-14T08:46:19.230Z,23.20
2018-05-14T08:48:20.178Z,23.30
2018-05-14T08:50:21.118Z,23.40
2018-05-14T08:52:22.179Z,23.50
2018-05-14T08:54:23.495Z,23.70
2018-05-14T08:56:24.350Z,23.70
2018-05-14T08:58:25.320Z,23.70
2018-05-14T09:00:26.254Z,24.00
2018-05-14T09:02:27.198Z,24.00
2018-05-14T09:04:28.169Z,24.10
2018-05-14T09:06:29.143Z,24.20
2018-05-14T09:08:30.465Z,24.10
2018-05-14T09:10:31.423Z,24.10
2018-05-14T09:12:32.737Z,24.10
2018-05-14T09:14:33.708Z,24.10
2018-05-14T09:16:34.658Z,24.10
2018-05-14T09:18:35.610Z,24.10
2018-05-14T09:20:36.562Z,24.30
2018-05-14T09:22:37.506Z,24.40
2018-05-14T09:24:38.622Z,24.50
2018-05-14T09:26:39.558Z,24.80
2018-05-14T09:28:40.492Z,24.80
2018-05-14T09:30:41.462Z,24.70
2018-05-14T09:32:42.409Z,24.80
2018-05-14T09:34:43.985Z,24.90
2018-05-14T09:36:45.028Z,24.90
2018-05-14T09:38:45.987Z,24.90
2018-05-14T09:40:46.942Z,24.80
2018-05-14T09:42:48.258Z,24.90
2018-05-14T09:44:49.272Z,25.00
2018-05-14T09:46:50.221Z,25.40
2018-05-14T09:48:51.190Z,25.60
2018-05-14T09:50:52.405Z,25.60
2018-05-14T09:52:53.342Z,25.40
2018-05-14T09:54:54.316Z,25.40
2018-05-14T09:56:55.627Z,25.40
2018-05-14T09:58:56.578Z,25.40
2018-05-14T10:00:57.919Z,25.70
2018-05-14T10:02:58.874Z,25.70
2018-05-14T10:05:00.505Z,25.50
2018-05-14T10:07:01.455Z,25.50
2018-05-14T10:09:02.774Z,25.40
2018-05-14T10:11:03.718Z,25.40
2018-05-14T10:13:05.329Z,25.70
2018-05-14T10:15:06.246Z,25.70
2018-05-14T10:17:07.525Z,25.80
2018-05-14T10:19:09.158Z,25.90
2018-05-14T10:21:10.129Z,26.30
2018-05-14T10:23:11.450Z,26.20
2018-05-14T10:25:12.422Z,26.20
2018-05-14T10:27:13.733Z,26.20
2018-05-14T10:29:14.674Z,26.20
2018-05-14T10:31:15.637Z,26.20
2018-05-14T10:33:16.687Z,26.30
2018-05-14T10:35:18.454Z,26.20
2018-05-14T10:37:19.431Z,26.30
2018-05-14T10:39:20.386Z,26.30
2018-05-14T10:41:21.711Z,26.60
2018-05-14T10:43:22.662Z,26.60
2018-05-14T10:45:24.090Z,26.80
2018-05-14T10:47:25.130Z,26.80
2018-05-14T10:49:26.078Z,27.00
2018-05-14T10:51:27.398Z,27.30
2018-05-14T10:53:28.365Z,27.30
2018-05-14T10:55:29.346Z,27.70
2018-05-14T10:57:30.301Z,28.10
2018-05-14T10:59:31.922Z,27.90
2018-05-14T11:01:32.879Z,27.60
2018-05-14T11:03:33.846Z,27.80
2018-05-14T11:05:35.330Z,27.60
2018-05-14T11:07:36.274Z,27.60
2018-05-14T11:09:37.206Z,27.60
2018-05-14T11:11:38.158Z,28.00
2018-05-14T11:13:39.119Z,28.20
2018-05-14T11:15:40.449Z,28.10
2018-05-14T11:17:41.414Z,28.10
2018-05-14T11:19:42.744Z,28.20
2018-05-14T11:21:44.054Z,28.20
2018-05-14T11:23:44.998Z,28.20
2018-05-14T11:25:46.020Z,28.40
2018-05-14T11:27:46.994Z,28.20
2018-05-14T11:29:48.641Z,27.90
2018-05-14T11:31:49.969Z,28.70
2018-05-14T11:33:50.911Z,28.70
2018-05-14T11:35:52.217Z,28.00
2018-05-14T11:37:53.463Z,28.00
2018-05-14T11:39:54.422Z,27.80
2018-05-14T11:41:55.403Z,27.40
2018-05-14T11:43:56.334Z,27.70
2018-05-14T11:45:57.298Z,28.40
2018-05-14T11:47:58.245Z,28.70
2018-05-14T11:49:59.186Z,28.90
2018-05-14T11:52:00.502Z,29.50
2018-05-14T11:54:02.612Z,29.30
2018-05-14T11:56:03.663Z,29.50
2018-05-14T11:58:05.359Z,29.90
2018-05-14T12:00:06.554Z,29.90
2018-05-14T12:02:07.531Z,29.80
2018-05-14T12:04:08.519Z,30.20
2018-05-14T12:06:09.457Z,30.30
2018-05-14T12:08:10.422Z,30.00
2018-05-14T12:10:11.375Z,31.00
2018-05-14T12:12:12.397Z,30.80
2018-05-14T12:14:13.658Z,30.10
2018-05-14T12:16:14.624Z,30.10
2018-05-14T12:18:16.203Z,30.30
2018-05-14T12:20:17.154Z,30.30
2018-05-14T12:22:18.102Z,30.20
2018-05-14T12:24:19.073Z,30.30
2018-05-14T12:26:20.390Z,29.20
2018-05-14T12:28:21.851Z,29.20
2018-05-14T12:30:23.194Z,30.60
2018-05-14T12:32:24.514Z,30.80
2018-05-14T12:34:25.496Z,30.70
2018-05-14T12:36:26.413Z,30.70
2018-05-14T12:38:27.751Z,31.50
2018-05-14T12:40:29.071Z,31.50
2018-05-14T12:42:30.022Z,31.50
2018-05-14T12:44:31.345Z,31.10
2018-05-14T12:46:32.354Z,31.00
2018-05-14T12:48:33.310Z,31.00
2018-05-14T12:50:34.646Z,29.40
2018-05-14T12:52:35.595Z,29.40
2018-05-14T12:54:36.558Z,29.50
2018-05-14T12:56:37.983Z,31.00
2018-05-14T12:58:38.954Z,31.00
2018-05-14T13:00:39.894Z,32.50
2018-05-14T13:02:40.942Z,33.40
2018-05-14T13:04:41.895Z,33.30
2018-05-14T13:06:42.849Z,33.30
2018-05-14T13:08:43.826Z,34.20
2018-05-14T13:10:44.773Z,33.90
2018-05-14T13:12:46.089Z,32.80
2018-05-14T13:14:47.423Z,31.70
2018-05-14T13:16:48.750Z,31.50
2018-05-14T13:18:49.706Z,31.50
2018-05-14T13:20:51.285Z,31.40
2018-05-14T13:22:52.241Z,31.40
2018-05-14T13:24:53.181Z,32.40
2018-05-14T13:26:54.275Z,33.00
2018-05-14T13:28:55.234Z,33.20
2018-05-14T13:30:56.173Z,33.40
2018-05-14T13:32:57.296Z,32.60
2018-05-14T13:34:58.277Z,32.80
2018-05-14T13:36:59.222Z,32.90
2018-05-14T13:39:00.183Z,32.90
2018-05-14T13:41:01.153Z,33.50
2018-05-14T13:43:02.118Z,32.30
2018-05-14T13:45:03.068Z,32.80
2018-05-14T13:47:04.049Z,32.80
2018-05-14T13:49:04.995Z,33.00
2018-05-14T13:51:06.106Z,32.90
2018-05-14T13:53:06.939Z,34.10
2018-05-14T13:55:07.890Z,35.10
2018-05-14T13:57:08.833Z,35.30
2018-05-14T13:59:09.938Z,35.10
2018-05-14T14:01:10.886Z,34.40
2018-05-14T14:03:11.835Z,34.30
2018-05-14T14:05:12.803Z,34.50
2018-05-14T14:07:13.741Z,36.10
2018-05-14T14:09:14.731Z,35.50
2018-05-14T14:11:15.690Z,34.90
2018-05-14T14:13:16.639Z,34.90
2018-05-14T14:15:17.967Z,35.40
2018-05-14T14:17:18.921Z,35.40
2018-05-14T14:19:20.238Z,35.20
2018-05-14T14:21:21.215Z,35.20
2018-05-14T14:23:22.641Z,34.90
2018-05-14T14:25:23.478Z,34.90
2018-05-14T14:27:25.105Z,34.50
2018-05-14T14:29:26.061Z,34.50
2018-05-14T14:31:27.373Z,34.30
2018-05-14T14:33:28.370Z,34.30
2018-05-14T14:35:29.346Z,34.30
2018-05-14T14:37:30.325Z,34.30
2018-05-14T14:39:31.286Z,34.40
2018-05-14T14:41:32.229Z,33.70
2018-05-14T14:43:33.178Z,33.00
2018-05-14T14:45:34.418Z,32.40
2018-05-14T14:47:35.375Z,31.80
2018-05-14T14:49:36.323Z,31.00
2018-05-14T14:51:38.137Z,29.70
2018-05-14T14:53:39.167Z,29.70
2018-05-14T14:55:40.082Z,29.00
2018-05-14T14:57:41.389Z,28.90
2018-05-14T14:59:42.718Z,28.60
2018-05-14T15:01:43.660Z,28.60
2018-05-14T15:03:45.095Z,28.00
2018-05-14T15:05:46.858Z,28.00
2018-05-14T15:07:48.207Z,27.70
2018-05-14T15:09:49.539Z,27.70
2018-05-14T15:11:50.851Z,27.50
2018-05-14T15:13:51.813Z,27.40
2018-05-14T15:15:52.846Z,27.20
2018-05-14T15:17:53.798Z,27.50
2018-05-14T15:19:55.202Z,27.40
2018-05-14T15:21:56.146Z,27.40
2018-05-14T15:23:57.085Z,27.10
2018-05-14T15:25:58.061Z,26.90
2018-05-14T15:27:59.008Z,26.60
2018-05-14T15:30:00.002Z,26.40
2018-05-14T15:32:00.958Z,26.50
2018-05-14T15:34:02.331Z,26.10
2018-05-14T15:36:03.275Z,26.10
2018-05-14T15:38:04.828Z,26.30
2018-05-14T15:40:05.785Z,26.20
2018-05-14T15:42:07.235Z,26.20
2018-05-14T15:44:08.255Z,26.20
2018-05-14T15:46:09.223Z,26.00
2018-05-14T15:48:10.546Z,25.70
2018-05-14T15:50:11.506Z,25.70
2018-05-14T15:52:12.825Z,25.40
2018-05-14T15:54:13.832Z,25.40
2018-05-14T15:56:14.953Z,25.30
2018-05-14T15:58:15.846Z,25.50
2018-05-14T16:00:17.154Z,25.70
2018-05-14T16:02:18.102Z,25.70
2018-05-14T16:04:19.042Z,25.70
2018-05-14T16:06:20.019Z,25.70
2018-05-14T16:08:20.983Z,25.80
2018-05-14T16:10:21.970Z,25.60
2018-05-14T16:12:23.318Z,25.20
2018-05-14T16:14:24.638Z,25.00
2018-05-14T16:16:25.580Z,25.00
2018-05-14T16:18:27.197Z,25.00
2018-05-14T16:20:28.162Z,25.00
2018-05-14T16:22:29.479Z,24.90
2018-05-14T16:24:30.612Z,24.90
2018-05-14T16:26:31.619Z,24.70
2018-05-14T16:28:32.521Z,24.50
2018-05-14T16:30:33.854Z,24.40
2018-05-14T16:32:35.186Z,24.30
2018-05-14T16:34:36.143Z,24.30
2018-05-14T16:38:45.363Z,24.30
2018-05-14T16:40:46.308Z,24.40
2018-05-14T16:42:48.223Z,24.30
2018-05-14T16:44:49.298Z,24.40
2018-05-14T16:46:50.607Z,24.00
2018-05-14T16:48:51.566Z,24.00
2018-05-14T16:50:52.507Z,24.10
2018-05-14T16:52:53.826Z,24.00
2018-05-14T16:54:54.954Z,23.90
2018-05-14T16:56:55.913Z,23.90
2018-05-14T16:58:56.976Z,23.90
2018-05-14T17:00:58.293Z,23.90
2018-05-14T17:02:59.289Z,23.90
2018-05-14T17:05:00.237Z,23.90
2018-05-14T17:07:01.890Z,24.00
2018-05-14T17:09:02.890Z,24.00
2018-05-14T17:11:03.985Z,23.90
2018-05-14T17:13:04.958Z,23.80
2018-05-14T17:15:05.958Z,23.70
2018-05-14T17:17:07.186Z,23.60
2018-05-14T17:19:08.178Z,23.50
2018-05-14T17:21:09.170Z,23.50
2018-05-14T17:23:10.523Z,23.50
2018-05-14T17:25:11.873Z,23.60
2018-05-14T17:27:13.223Z,23.40
2018-05-14T17:29:14.237Z,23.40
2018-05-14T17:31:15.216Z,23.30
2018-05-14T17:33:16.185Z,23.30
2018-05-14T17:35:17.184Z,23.30
2018-05-14T17:37:18.159Z,23.10
2018-05-14T17:39:19.234Z,23.00
2018-05-14T17:41:20.267Z,23.00
2018-05-14T17:43:21.614Z,23.00
2018-05-14T17:45:22.995Z,23.00
2018-05-14T17:47:23.983Z,23.00
2018-05-14T17:49:25.330Z,22.80
2018-05-14T17:51:26.693Z,22.80
2018-05-14T17:53:27.698Z,22.80
2018-05-14T17:55:29.038Z,22.60
2018-05-14T17:57:30.044Z,22.60
2018-05-14T17:59:31.291Z,22.60
2018-05-14T18:01:32.247Z,22.40
2018-05-14T18:03:33.196Z,22.50
2018-05-14T18:05:34.543Z,22.50
2018-05-14T18:07:35.863Z,22.60
2018-05-14T18:09:36.806Z,22.60
2018-05-14T18:11:38.010Z,22.50
2018-05-14T18:13:38.961Z,22.40
2018-05-14T18:15:39.893Z,22.30
2018-05-14T18:17:40.887Z,22.20
2018-05-14T18:19:48.090Z,22.00
2018-05-14T18:21:49.038Z,22.00
2018-05-14T18:23:49.991Z,22.00
2018-05-14T18:25:53.889Z,21.90
2018-05-14T18:28:00.918Z,21.80
2018-05-14T18:30:07.907Z,21.80
2018-05-14T18:32:08.861Z,21.80
2018-05-14T18:34:09.811Z,21.70
2018-05-14T18:36:10.766Z,21.60
2018-05-14T18:38:12.106Z,21.70
2018-05-14T18:40:13.426Z,21.60
2018-05-14T18:42:14.384Z,21.60
2018-05-14T18:44:15.706Z,21.40
2018-05-14T18:46:16.647Z,21.40
2018-05-14T18:48:17.975Z,21.30
2018-05-14T18:50:18.929Z,21.30
2018-05-14T18:52:20.251Z,21.20
2018-05-14T18:54:21.202Z,21.20
2018-05-14T18:56:22.541Z,20.90
2018-05-14T18:58:23.488Z,20.90
2018-05-14T19:00:24.822Z,21.00
2018-05-14T19:02:25.757Z,21.00
2018-05-14T19:04:27.091Z,21.00
2018-05-14T19:06:28.041Z,21.00
2018-05-14T19:08:29.357Z,20.80
2018-05-14T19:10:36.519Z,20.80
2018-05-14T19:12:37.494Z,20.90
2018-05-14T19:14:38.828Z,20.90
2018-05-14T19:16:45.873Z,20.90
2018-05-14T19:18:46.813Z,20.80
2018-05-14T19:20:47.770Z,20.70
2018-05-14T19:22:54.682Z,20.50
2018-05-14T19:24:55.652Z,20.30
2018-05-14T19:26:56.614Z,20.40
2018-05-14T19:42:16.483Z,19.90
2018-05-14T19:44:17.795Z,19.90
2018-05-14T19:46:18.740Z,19.90
2018-05-14T19:48:19.717Z,19.90
2018-05-14T19:50:20.752Z,19.80
2018-05-14T19:52:21.687Z,19.80
2018-05-14T19:54:22.646Z,20.00
2018-05-14T19:56:23.591Z,20.00
2018-05-14T19:58:24.538Z,19.90
2018-05-14T20:00:25.869Z,19.70
2018-05-14T20:02:26.826Z,19.60
2018-05-14T20:04:27.765Z,19.70
2018-05-14T20:06:28.722Z,19.80
2018-05-14T20:08:37.177Z,19.70
2018-05-14T20:10:38.118Z,19.70
2018-05-14T20:12:39.154Z,19.70
2018-05-14T20:14:40.650Z,19.60
2018-05-14T20:16:41.641Z,19.50
2018-05-14T20:18:42.708Z,19.50
2018-05-14T20:20:44.029Z,19.50
2018-05-14T20:22:44.984Z,19.50
2018-05-14T20:24:46.435Z,19.30
2018-05-14T20:26:47.775Z,19.20
2018-05-14T20:28:49.094Z,19.10
2018-05-14T20:30:50.363Z,19.10
2018-05-14T20:32:51.678Z,19.10
2018-05-14T20:34:52.619Z,19.10
2018-05-14T20:36:53.574Z,19.20
2018-05-14T20:38:54.896Z,19.00
2018-05-14T20:40:55.905Z,19.00
2018-05-14T20:42:56.897Z,19.00
2018-05-14T20:44:58.187Z,19.00
2018-05-14T20:46:59.410Z,19.00
2018-05-14T20:49:00.534Z,19.10
2018-05-14T20:51:02.046Z,18.90
2018-05-14T20:53:03.363Z,18.80
2018-05-14T20:55:04.494Z,18.80
2018-05-14T20:57:05.455Z,18.90
2018-05-14T20:59:06.418Z,18.60
2018-05-14T21:01:07.390Z,18.70
2018-05-14T21:03:08.326Z,18.70
2018-05-14T21:05:09.346Z,18.70
2018-05-14T21:07:10.266Z,18.70
2018-05-14T21:09:11.206Z,18.70
2018-05-14T21:11:12.154Z,18.50
2018-05-14T21:13:13.299Z,18.50
2018-05-14T21:15:14.226Z,18.40
2018-05-14T21:17:15.189Z,18.40
2018-05-14T21:19:16.486Z,18.30
2018-05-14T21:21:18.501Z,18.40
2018-05-14T21:23:19.451Z,18.20
2018-05-14T21:25:20.767Z,18.30
2018-05-14T21:27:23.169Z,18.30
2018-05-14T21:29:24.484Z,18.30
2018-05-14T21:31:25.426Z,18.30
2018-05-14T21:33:26.391Z,18.20
2018-05-14T21:35:27.349Z,18.00
2018-05-14T21:37:28.298Z,18.10
2018-05-14T21:39:29.246Z,18.00
2018-05-14T21:41:30.178Z,18.10
2018-05-14T21:43:32.033Z,18.00
2018-05-14T21:45:32.991Z,18.20
2018-05-14T21:47:34.314Z,18.00
2018-05-14T21:49:35.275Z,18.00
2018-05-14T21:51:36.597Z,17.80
2018-05-14T21:53:37.531Z,17.80
2018-05-14T21:55:38.466Z,17.90
2018-05-14T21:57:39.420Z,17.80
2018-05-14T21:59:40.746Z,17.80
2018-05-14T22:01:41.677Z,17.80
2018-05-14T22:03:42.615Z,17.90
2018-05-14T22:05:49.381Z,17.50
2018-05-14T22:11:55.753Z,17.50
2018-05-14T22:13:56.697Z,17.40
2018-05-14T22:15:57.641Z,17.50
2018-05-14T22:17:59.509Z,17.80
2018-05-14T22:20:00.860Z,17.80
2018-05-14T22:22:01.803Z,17.80
2018-05-14T22:24:02.742Z,17.70
2018-05-14T22:26:03.678Z,17.70
2018-05-14T22:28:04.611Z,17.70
2018-05-14T22:30:05.573Z,17.70
2018-05-14T22:32:07.064Z,17.80
2018-05-14T22:34:08.382Z,17.50
2018-05-14T22:36:09.454Z,17.50
2018-05-14T22:38:10.762Z,17.50
2018-05-14T22:40:11.701Z,17.60
2018-05-14T22:42:12.650Z,17.40
2018-05-14T22:44:14.058Z,17.40
2018-05-14T22:46:15.015Z,17.40
2018-05-14T22:48:15.957Z,17.40
2018-05-14T22:50:16.905Z,17.60
2018-05-14T22:52:18.254Z,17.60
2018-05-14T22:54:31.627Z,17.60
2018-05-14T22:56:32.587Z,17.50
2018-05-14T22:58:33.522Z,17.50
2018-05-14T23:00:34.462Z,17.40
2018-05-14T23:02:35.801Z,17.40
2018-05-14T23:04:36.733Z,17.40
2018-05-14T23:06:37.683Z,17.20
2018-05-14T23:08:38.990Z,17.20
2018-05-14T23:10:39.942Z,17.20
2018-05-14T23:12:40.883Z,17.20
2018-05-14T23:14:42.199Z,17.10
2018-05-14T23:16:43.126Z,17.10
2018-05-14T23:18:44.065Z,17.00
2018-05-14T23:20:45.021Z,17.00
2018-05-14T23:22:45.953Z,17.10
2018-05-14T23:24:46.898Z,16.90
2018-05-14T23:26:48.227Z,17.00
2018-05-14T23:28:49.182Z,17.00
2018-05-14T23:30:50.502Z,16.90
2018-05-14T23:32:51.437Z,16.90
2018-05-14T23:34:52.598Z,16.80
2018-05-14T23:36:53.918Z,16.70
2018-05-14T23:38:54.857Z,16.70
2018-05-14T23:40:55.812Z,16.80
2018-05-14T23:42:57.121Z,16.70
2018-05-14T23:44:58.084Z,16.70
2018-05-14T23:46:59.410Z,16.70
2018-05-14T23:49:00.351Z,16.80
2018-05-14T23:51:01.679Z,16.70
2018-05-14T23:53:02.675Z,16.70
2018-05-14T23:55:03.615Z,16.40
2018-05-14T23:57:04.550Z,16.40
2018-05-14T23:59:05.502Z,16.30
